sensor_id;sensor_type;location;lat;lon;timestamp;P1;durP1;ratioP1;P2;durP2;ratioP2
9924;SDS011;5001;51.674;7.868;2023-06-10T00:02:21;7.40;;;5.38;;
9924;SDS011;5001;51.674;7.868;2023-06-10T00:04:49;6.22;;;4.97;;
9924;SDS011;5001;51.674;7.868;2023-06-10T00:07:16;5.95;;;4.88;;
9924;SDS011;5001;51.674;7.868;2023-06-10T00:09:43;6.95;;;4.80;;
9924;SDS011;5001;51.674;7.868;2023-06-10T00:12:11;6.22;;;5.30;;
9924;SDS011;5001;51.674;7.868;2023-06-10T00:14:38;6.85;;;5.18;;
9924;SDS011;5001;51.674;7.868;2023-06-10T00:17:09;8.68;;;4.90;;
9924;SDS011;5001;51.674;7.868;2023-06-10T00:19:36;7.38;;;5.82;;
9924;SDS011;5001;51.674;7.868;2023-06-10T00:22:08;6.85;;;5.15;;
9924;SDS011;5001;51.674;7.868;2023-06-10T00:24:37;7.22;;;5.05;;
9924;SDS011;5001;51.674;7.868;2023-06-10T00:27:05;6.18;;;5.05;;
9924;SDS011;5001;51.674;7.868;2023-06-10T00:29:33;8.55;;;5.85;;
9924;SDS011;5001;51.674;7.868;2023-06-10T00:32:00;6.40;;;5.53;;
9924;SDS011;5001;51.674;7.868;2023-06-10T00:34:28;6.57;;;5.50;;
9924;SDS011;5001;51.674;7.868;2023-06-10T00:36:57;6.90;;;5.22;;
9924;SDS011;5001;51.674;7.868;2023-06-10T00:39:24;8.63;;;5.68;;
9924;SDS011;5001;51.674;7.868;2023-06-10T00:41:51;5.95;;;5.35;;
9924;SDS011;5001;51.674;7.868;2023-06-10T00:44:18;6.43;;;4.93;;
9924;SDS011;5001;51.674;7.868;2023-06-10T00:46:45;6.95;;;5.13;;
9924;SDS011;5001;51.674;7.868;2023-06-10T00:49:14;6.93;;;4.90;;
9924;SDS011;5001;51.674;7.868;2023-06-10T00:51:42;6.30;;;5.07;;
9924;SDS011;5001;51.674;7.868;2023-06-10T00:54:09;7.28;;;5.28;;
9924;SDS011;5001;51.674;7.868;2023-06-10T00:56:40;6.38;;;5.13;;
9924;SDS011;5001;51.674;7.868;2023-06-10T00:59:09;5.63;;;4.60;;
9924;SDS011;5001;51.674;7.868;2023-06-10T01:01:36;5.88;;;4.78;;
9924;SDS011;5001;51.674;7.868;2023-06-10T01:04:04;6.85;;;4.82;;
9924;SDS011;5001;51.674;7.868;2023-06-10T01:06:43;7.63;;;5.53;;
9924;SDS011;5001;51.674;7.868;2023-06-10T01:12:30;6.07;;;4.93;;
9924;SDS011;5001;51.674;7.868;2023-06-10T01:15:06;10.10;;;5.25;;
9924;SDS011;5001;51.674;7.868;2023-06-10T01:17:51;6.18;;;5.18;;
9924;SDS011;5001;51.674;7.868;2023-06-10T01:20:23;8.32;;;5.32;;
9924;SDS011;5001;51.674;7.868;2023-06-10T01:22:50;5.75;;;5.15;;
9924;SDS011;5001;51.674;7.868;2023-06-10T01:25:21;7.15;;;5.00;;
9924;SDS011;5001;51.674;7.868;2023-06-10T01:33:39;7.05;;;5.13;;
9924;SDS011;5001;51.674;7.868;2023-06-10T01:36:10;6.35;;;4.40;;
9924;SDS011;5001;51.674;7.868;2023-06-10T01:38:42;6.25;;;4.82;;
9924;SDS011;5001;51.674;7.868;2023-06-10T01:41:13;5.82;;;5.20;;
9924;SDS011;5001;51.674;7.868;2023-06-10T01:43:43;8.43;;;5.07;;
9924;SDS011;5001;51.674;7.868;2023-06-10T01:46:12;5.65;;;4.72;;
9924;SDS011;5001;51.674;7.868;2023-06-10T01:48:41;6.28;;;4.85;;
9924;SDS011;5001;51.674;7.868;2023-06-10T01:51:08;7.70;;;5.68;;
9924;SDS011;5001;51.674;7.868;2023-06-10T01:53:36;5.18;;;4.65;;
9924;SDS011;5001;51.674;7.868;2023-06-10T01:56:03;6.63;;;4.53;;
9924;SDS011;5001;51.674;7.868;2023-06-10T01:58:31;7.80;;;5.72;;
9924;SDS011;5001;51.674;7.868;2023-06-10T02:00:58;23.25;;;13.95;;
9924;SDS011;5001;51.674;7.868;2023-06-10T02:03:25;24.55;;;14.63;;
9924;SDS011;5001;51.674;7.868;2023-06-10T02:05:55;41.65;;;24.27;;
9924;SDS011;5001;51.674;7.868;2023-06-10T02:08:22;12.05;;;9.95;;
9924;SDS011;5001;51.674;7.868;2023-06-10T02:10:49;10.10;;;6.53;;
9924;SDS011;5001;51.674;7.868;2023-06-10T02:13:17;7.72;;;5.82;;
9924;SDS011;5001;51.674;7.868;2023-06-10T02:15:44;18.05;;;12.57;;
9924;SDS011;5001;51.674;7.868;2023-06-10T02:18:15;18.17;;;11.55;;
9924;SDS011;5001;51.674;7.868;2023-06-10T02:20:42;15.95;;;11.85;;
9924;SDS011;5001;51.674;7.868;2023-06-10T02:23:09;10.57;;;6.75;;
9924;SDS011;5001;51.674;7.868;2023-06-10T02:25:36;6.22;;;5.18;;
9924;SDS011;5001;51.674;7.868;2023-06-10T02:28:06;12.65;;;7.40;;
9924;SDS011;5001;51.674;7.868;2023-06-10T02:30:33;10.60;;;6.30;;
9924;SDS011;5001;51.674;7.868;2023-06-10T02:33:00;11.02;;;8.20;;
9924;SDS011;5001;51.674;7.868;2023-06-10T02:35:29;10.32;;;6.40;;
9924;SDS011;5001;51.674;7.868;2023-06-10T02:37:56;10.88;;;6.82;;
9924;SDS011;5001;51.674;7.868;2023-06-10T02:40:24;6.18;;;5.13;;
9924;SDS011;5001;51.674;7.868;2023-06-10T02:42:51;6.90;;;5.22;;
9924;SDS011;5001;51.674;7.868;2023-06-10T02:45:18;7.03;;;4.97;;
9924;SDS011;5001;51.674;7.868;2023-06-10T02:47:46;12.55;;;5.00;;
9924;SDS011;5001;51.674;7.868;2023-06-10T02:50:13;4.90;;;4.40;;
9924;SDS011;5001;51.674;7.868;2023-06-10T02:52:59;5.05;;;4.45;;
9924;SDS011;5001;51.674;7.868;2023-06-10T02:55:26;6.53;;;4.35;;
9924;SDS011;5001;51.674;7.868;2023-06-10T02:57:59;5.45;;;3.55;;
9924;SDS011;5001;51.674;7.868;2023-06-10T03:00:27;5.88;;;4.55;;
9924;SDS011;5001;51.674;7.868;2023-06-10T03:02:55;7.05;;;4.22;;
9924;SDS011;5001;51.674;7.868;2023-06-10T03:05:30;5.97;;;4.22;;
9924;SDS011;5001;51.674;7.868;2023-06-10T03:08:02;5.07;;;4.00;;
9924;SDS011;5001;51.674;7.868;2023-06-10T03:10:31;4.90;;;3.40;;
9924;SDS011;5001;51.674;7.868;2023-06-10T03:13:00;4.93;;;3.65;;
9924;SDS011;5001;51.674;7.868;2023-06-10T03:15:27;6.80;;;3.90;;
9924;SDS011;5001;51.674;7.868;2023-06-10T03:17:55;6.60;;;4.10;;
9924;SDS011;5001;51.674;7.868;2023-06-10T03:20:22;5.03;;;3.65;;
9924;SDS011;5001;51.674;7.868;2023-06-10T03:22:50;4.47;;;3.30;;
9924;SDS011;5001;51.674;7.868;2023-06-10T03:25:21;5.80;;;3.78;;
9924;SDS011;5001;51.674;7.868;2023-06-10T03:27:51;5.15;;;3.85;;
9924;SDS011;5001;51.674;7.868;2023-06-10T03:30:20;5.65;;;3.67;;
9924;SDS011;5001;51.674;7.868;2023-06-10T03:32:47;5.05;;;3.90;;
9924;SDS011;5001;51.674;7.868;2023-06-10T03:35:18;3.97;;;3.15;;
9924;SDS011;5001;51.674;7.868;2023-06-10T03:37:45;6.65;;;4.03;;
9924;SDS011;5001;51.674;7.868;2023-06-10T03:40:13;5.68;;;3.47;;
9924;SDS011;5001;51.674;7.868;2023-06-10T03:42:43;5.28;;;3.78;;
9924;SDS011;5001;51.674;7.868;2023-06-10T03:45:13;4.43;;;3.28;;
9924;SDS011;5001;51.674;7.868;2023-06-10T03:47:41;6.97;;;3.95;;
9924;SDS011;5001;51.674;7.868;2023-06-10T03:50:12;4.88;;;3.40;;
9924;SDS011;5001;51.674;7.868;2023-06-10T03:52:42;4.28;;;3.33;;
9924;SDS011;5001;51.674;7.868;2023-06-10T03:55:12;3.65;;;3.13;;
9924;SDS011;5001;51.674;7.868;2023-06-10T03:57:43;4.40;;;2.92;;
9924;SDS011;5001;51.674;7.868;2023-06-10T04:00:10;5.70;;;3.08;;
9924;SDS011;5001;51.674;7.868;2023-06-10T04:02:41;6.22;;;3.10;;
9924;SDS011;5001;51.674;7.868;2023-06-10T04:05:35;4.47;;;3.20;;
9924;SDS011;5001;51.674;7.868;2023-06-10T04:08:03;4.97;;;3.08;;
9924;SDS011;5001;51.674;7.868;2023-06-10T04:10:32;4.85;;;3.20;;
9924;SDS011;5001;51.674;7.868;2023-06-10T04:13:00;7.65;;;3.35;;
9924;SDS011;5001;51.674;7.868;2023-06-10T04:15:32;5.55;;;3.22;;
9924;SDS011;5001;51.674;7.868;2023-06-10T04:18:04;4.50;;;2.70;;
9924;SDS011;5001;51.674;7.868;2023-06-10T04:20:32;4.75;;;3.10;;
9924;SDS011;5001;51.674;7.868;2023-06-10T04:23:00;4.88;;;3.15;;
9924;SDS011;5001;51.674;7.868;2023-06-10T04:25:29;5.05;;;3.03;;
9924;SDS011;5001;51.674;7.868;2023-06-10T04:27:56;5.18;;;3.30;;
9924;SDS011;5001;51.674;7.868;2023-06-10T04:30:24;4.38;;;3.25;;
9924;SDS011;5001;51.674;7.868;2023-06-10T04:32:53;6.10;;;3.08;;
9924;SDS011;5001;51.674;7.868;2023-06-10T04:35:21;3.95;;;3.15;;
9924;SDS011;5001;51.674;7.868;2023-06-10T04:37:48;4.15;;;3.10;;
9924;SDS011;5001;51.674;7.868;2023-06-10T04:40:15;5.45;;;3.22;;
9924;SDS011;5001;51.674;7.868;2023-06-10T04:42:44;5.68;;;3.10;;
9924;SDS011;5001;51.674;7.868;2023-06-10T04:45:12;3.72;;;2.58;;
9924;SDS011;5001;51.674;7.868;2023-06-10T04:47:40;4.13;;;2.90;;
9924;SDS011;5001;51.674;7.868;2023-06-10T04:50:07;3.78;;;2.63;;
9924;SDS011;5001;51.674;7.868;2023-06-10T04:52:35;5.88;;;2.72;;
9924;SDS011;5001;51.674;7.868;2023-06-10T04:55:03;4.30;;;2.83;;
9924;SDS011;5001;51.674;7.868;2023-06-10T04:57:30;2.97;;;2.42;;
9924;SDS011;5001;51.674;7.868;2023-06-10T04:59:58;3.75;;;2.83;;
9924;SDS011;5001;51.674;7.868;2023-06-10T05:02:25;4.13;;;2.83;;
9924;SDS011;5001;51.674;7.868;2023-06-10T05:04:52;4.40;;;3.38;;
9924;SDS011;5001;51.674;7.868;2023-06-10T05:07:21;4.85;;;2.22;;
9924;SDS011;5001;51.674;7.868;2023-06-10T05:09:48;4.60;;;3.42;;
9924;SDS011;5001;51.674;7.868;2023-06-10T05:12:15;4.07;;;2.60;;
9924;SDS011;5001;51.674;7.868;2023-06-10T05:14:42;4.32;;;3.00;;
9924;SDS011;5001;51.674;7.868;2023-06-10T05:17:11;7.57;;;3.30;;
9924;SDS011;5001;51.674;7.868;2023-06-10T05:19:39;5.65;;;2.33;;
9924;SDS011;5001;51.674;7.868;2023-06-10T05:22:07;5.50;;;2.88;;
9924;SDS011;5001;51.674;7.868;2023-06-10T05:24:35;4.60;;;2.33;;
9924;SDS011;5001;51.674;7.868;2023-06-10T05:27:02;4.15;;;2.88;;
9924;SDS011;5001;51.674;7.868;2023-06-10T05:29:29;4.25;;;2.75;;
9924;SDS011;5001;51.674;7.868;2023-06-10T05:31:56;3.60;;;2.60;;
9924;SDS011;5001;51.674;7.868;2023-06-10T05:34:24;5.88;;;3.15;;
9924;SDS011;5001;51.674;7.868;2023-06-10T05:36:51;6.07;;;2.80;;
9924;SDS011;5001;51.674;7.868;2023-06-10T05:39:19;3.17;;;2.42;;
9924;SDS011;5001;51.674;7.868;2023-06-10T05:41:46;5.05;;;2.97;;
9924;SDS011;5001;51.674;7.868;2023-06-10T05:44:13;4.80;;;2.35;;
9924;SDS011;5001;51.674;7.868;2023-06-10T05:46:40;4.45;;;2.33;;
9924;SDS011;5001;51.674;7.868;2023-06-10T05:49:07;3.80;;;2.72;;
9924;SDS011;5001;51.674;7.868;2023-06-10T05:51:35;4.85;;;2.67;;
9924;SDS011;5001;51.674;7.868;2023-06-10T05:54:04;4.03;;;2.30;;
9924;SDS011;5001;51.674;7.868;2023-06-10T05:56:31;2.78;;;2.33;;
9924;SDS011;5001;51.674;7.868;2023-06-10T05:58:58;4.18;;;2.35;;
9924;SDS011;5001;51.674;7.868;2023-06-10T06:01:25;4.72;;;2.88;;
9924;SDS011;5001;51.674;7.868;2023-06-10T06:03:52;4.68;;;2.58;;
9924;SDS011;5001;51.674;7.868;2023-06-10T06:06:20;3.58;;;2.60;;
9924;SDS011;5001;51.674;7.868;2023-06-10T06:08:47;4.43;;;2.60;;
9924;SDS011;5001;51.674;7.868;2023-06-10T06:11:14;4.03;;;2.30;;
9924;SDS011;5001;51.674;7.868;2023-06-10T06:13:41;3.17;;;2.45;;
9924;SDS011;5001;51.674;7.868;2023-06-10T06:16:08;5.60;;;2.28;;
9924;SDS011;5001;51.674;7.868;2023-06-10T06:18:36;3.65;;;2.40;;
9924;SDS011;5001;51.674;7.868;2023-06-10T06:21:03;3.67;;;2.83;;
9924;SDS011;5001;51.674;7.868;2023-06-10T06:23:30;6.50;;;2.53;;
9924;SDS011;5001;51.674;7.868;2023-06-10T06:25:57;5.00;;;2.40;;
9924;SDS011;5001;51.674;7.868;2023-06-10T06:28:24;5.95;;;3.03;;
9924;SDS011;5001;51.674;7.868;2023-06-10T06:30:56;3.50;;;2.50;;
9924;SDS011;5001;51.674;7.868;2023-06-10T06:33:24;3.35;;;2.25;;
9924;SDS011;5001;51.674;7.868;2023-06-10T06:35:52;2.78;;;2.20;;
9924;SDS011;5001;51.674;7.868;2023-06-10T06:38:19;4.10;;;2.40;;
9924;SDS011;5001;51.674;7.868;2023-06-10T06:40:47;3.05;;;2.03;;
9924;SDS011;5001;51.674;7.868;2023-06-10T06:43:14;5.43;;;3.17;;
9924;SDS011;5001;51.674;7.868;2023-06-10T06:45:56;3.35;;;2.42;;
9924;SDS011;5001;51.674;7.868;2023-06-10T06:48:24;3.20;;;2.10;;
9924;SDS011;5001;51.674;7.868;2023-06-10T06:50:52;5.10;;;2.08;;
9924;SDS011;5001;51.674;7.868;2023-06-10T06:53:19;6.00;;;2.58;;
9924;SDS011;5001;51.674;7.868;2023-06-10T06:55:46;2.17;;;1.98;;
9924;SDS011;5001;51.674;7.868;2023-06-10T06:58:13;3.92;;;2.35;;
9924;SDS011;5001;51.674;7.868;2023-06-10T07:00:41;3.83;;;2.40;;
9924;SDS011;5001;51.674;7.868;2023-06-10T07:03:08;3.30;;;2.50;;
9924;SDS011;5001;51.674;7.868;2023-06-10T07:05:35;3.78;;;2.45;;
9924;SDS011;5001;51.674;7.868;2023-06-10T07:08:03;4.80;;;2.15;;
9924;SDS011;5001;51.674;7.868;2023-06-10T07:10:32;2.70;;;2.50;;
9924;SDS011;5001;51.674;7.868;2023-06-10T07:12:59;5.70;;;2.20;;
9924;SDS011;5001;51.674;7.868;2023-06-10T07:15:26;5.50;;;2.50;;
9924;SDS011;5001;51.674;7.868;2023-06-10T07:17:53;4.60;;;2.35;;
9924;SDS011;5001;51.674;7.868;2023-06-10T07:20:22;5.78;;;2.45;;
9924;SDS011;5001;51.674;7.868;2023-06-10T07:22:49;2.78;;;2.20;;
9924;SDS011;5001;51.674;7.868;2023-06-10T07:25:16;4.05;;;2.38;;
9924;SDS011;5001;51.674;7.868;2023-06-10T07:27:43;3.97;;;2.40;;
9924;SDS011;5001;51.674;7.868;2023-06-10T07:30:10;5.55;;;2.45;;
9924;SDS011;5001;51.674;7.868;2023-06-10T07:32:38;3.65;;;2.28;;
9924;SDS011;5001;51.674;7.868;2023-06-10T07:35:07;4.05;;;2.35;;
9924;SDS011;5001;51.674;7.868;2023-06-10T07:37:36;3.22;;;2.10;;
9924;SDS011;5001;51.674;7.868;2023-06-10T07:40:04;5.28;;;2.15;;
9924;SDS011;5001;51.674;7.868;2023-06-10T07:42:32;4.60;;;2.65;;
9924;SDS011;5001;51.674;7.868;2023-06-10T07:45:00;3.03;;;2.53;;
9924;SDS011;5001;51.674;7.868;2023-06-10T07:47:29;5.50;;;1.98;;
9924;SDS011;5001;51.674;7.868;2023-06-10T07:49:56;3.47;;;2.45;;
9924;SDS011;5001;51.674;7.868;2023-06-10T07:52:23;3.40;;;2.70;;
9924;SDS011;5001;51.674;7.868;2023-06-10T07:54:52;3.45;;;2.55;;
9924;SDS011;5001;51.674;7.868;2023-06-10T07:57:19;5.00;;;2.45;;
9924;SDS011;5001;51.674;7.868;2023-06-10T07:59:46;2.67;;;2.00;;
9924;SDS011;5001;51.674;7.868;2023-06-10T08:02:13;3.22;;;2.38;;
9924;SDS011;5001;51.674;7.868;2023-06-10T08:04:40;4.82;;;2.58;;
9924;SDS011;5001;51.674;7.868;2023-06-10T08:07:07;5.85;;;2.08;;
9924;SDS011;5001;51.674;7.868;2023-06-10T08:09:34;4.65;;;2.92;;
9924;SDS011;5001;51.674;7.868;2023-06-10T08:12:02;4.35;;;2.40;;
9924;SDS011;5001;51.674;7.868;2023-06-10T08:14:29;4.18;;;2.50;;
9924;SDS011;5001;51.674;7.868;2023-06-10T08:16:56;5.75;;;2.60;;
9924;SDS011;5001;51.674;7.868;2023-06-10T08:19:24;6.88;;;2.00;;
9924;SDS011;5001;51.674;7.868;2023-06-10T08:21:51;2.28;;;2.00;;
9924;SDS011;5001;51.674;7.868;2023-06-10T08:24:19;4.28;;;2.55;;
9924;SDS011;5001;51.674;7.868;2023-06-10T08:26:46;4.15;;;2.50;;
9924;SDS011;5001;51.674;7.868;2023-06-10T08:29:13;6.28;;;2.53;;
9924;SDS011;5001;51.674;7.868;2023-06-10T08:31:41;3.85;;;2.25;;
9924;SDS011;5001;51.674;7.868;2023-06-10T08:34:10;4.90;;;2.38;;
9924;SDS011;5001;51.674;7.868;2023-06-10T08:36:38;4.00;;;2.45;;
9924;SDS011;5001;51.674;7.868;2023-06-10T08:39:06;4.43;;;2.40;;
9924;SDS011;5001;51.674;7.868;2023-06-10T08:41:34;4.72;;;2.40;;
9924;SDS011;5001;51.674;7.868;2023-06-10T08:44:12;3.38;;;2.47;;
9924;SDS011;5001;51.674;7.868;2023-06-10T08:46:55;3.88;;;2.60;;
9924;SDS011;5001;51.674;7.868;2023-06-10T08:49:29;2.55;;;2.35;;
9924;SDS011;5001;51.674;7.868;2023-06-10T08:52:00;3.53;;;2.40;;
9924;SDS011;5001;51.674;7.868;2023-06-10T08:54:32;3.80;;;2.38;;
9924;SDS011;5001;51.674;7.868;2023-06-10T08:57:05;3.42;;;2.45;;
9924;SDS011;5001;51.674;7.868;2023-06-10T08:59:33;4.63;;;2.75;;
9924;SDS011;5001;51.674;7.868;2023-06-10T09:02:01;6.72;;;2.63;;
9924;SDS011;5001;51.674;7.868;2023-06-10T09:04:31;4.13;;;2.45;;
9924;SDS011;5001;51.674;7.868;2023-06-10T09:06:58;2.97;;;2.67;;
9924;SDS011;5001;51.674;7.868;2023-06-10T09:09:28;3.03;;;2.60;;
9924;SDS011;5001;51.674;7.868;2023-06-10T09:11:58;3.53;;;2.47;;
9924;SDS011;5001;51.674;7.868;2023-06-10T09:14:25;4.20;;;2.58;;
9924;SDS011;5001;51.674;7.868;2023-06-10T09:16:57;3.67;;;2.83;;
9924;SDS011;5001;51.674;7.868;2023-06-10T09:19:25;3.70;;;2.85;;
9924;SDS011;5001;51.674;7.868;2023-06-10T09:21:53;5.03;;;2.78;;
9924;SDS011;5001;51.674;7.868;2023-06-10T09:24:22;3.50;;;2.70;;
9924;SDS011;5001;51.674;7.868;2023-06-10T09:26:50;4.25;;;2.90;;
9924;SDS011;5001;51.674;7.868;2023-06-10T09:29:28;2.97;;;2.67;;
9924;SDS011;5001;51.674;7.868;2023-06-10T09:31:55;3.20;;;2.90;;
9924;SDS011;5001;51.674;7.868;2023-06-10T09:34:24;3.85;;;3.05;;
9924;SDS011;5001;51.674;7.868;2023-06-10T09:36:52;5.40;;;2.70;;
9924;SDS011;5001;51.674;7.868;2023-06-10T09:39:20;3.42;;;2.72;;
9924;SDS011;5001;51.674;7.868;2023-06-10T09:41:47;6.18;;;2.92;;
9924;SDS011;5001;51.674;7.868;2023-06-10T09:44:16;3.13;;;2.60;;
9924;SDS011;5001;51.674;7.868;2023-06-10T09:46:46;7.35;;;2.70;;
9924;SDS011;5001;51.674;7.868;2023-06-10T09:49:16;7.40;;;2.67;;
9924;SDS011;5001;51.674;7.868;2023-06-10T09:51:51;5.03;;;3.25;;
9924;SDS011;5001;51.674;7.868;2023-06-10T09:54:20;4.20;;;2.63;;
9924;SDS011;5001;51.674;7.868;2023-06-10T09:56:51;6.18;;;3.08;;
9924;SDS011;5001;51.674;7.868;2023-06-10T09:59:28;5.18;;;2.83;;
9924;SDS011;5001;51.674;7.868;2023-06-10T10:01:59;2.83;;;2.60;;
9924;SDS011;5001;51.674;7.868;2023-06-10T10:04:27;3.45;;;2.78;;
9924;SDS011;5001;51.674;7.868;2023-06-10T10:06:55;3.70;;;3.20;;
9924;SDS011;5001;51.674;7.868;2023-06-10T10:09:22;3.60;;;2.80;;
9924;SDS011;5001;51.674;7.868;2023-06-10T10:11:49;4.07;;;2.80;;
9924;SDS011;5001;51.674;7.868;2023-06-10T10:14:20;6.50;;;3.08;;
9924;SDS011;5001;51.674;7.868;2023-06-10T10:16:49;3.20;;;2.90;;
9924;SDS011;5001;51.674;7.868;2023-06-10T10:19:27;6.45;;;3.00;;
9924;SDS011;5001;51.674;7.868;2023-06-10T10:22:07;4.25;;;2.88;;
9924;SDS011;5001;51.674;7.868;2023-06-10T10:24:38;5.47;;;2.88;;
9924;SDS011;5001;51.674;7.868;2023-06-10T10:27:26;5.15;;;3.13;;
9924;SDS011;5001;51.674;7.868;2023-06-10T10:29:55;3.90;;;2.85;;
9924;SDS011;5001;51.674;7.868;2023-06-10T10:32:32;4.15;;;2.78;;
9924;SDS011;5001;51.674;7.868;2023-06-10T10:37:35;3.83;;;3.03;;
9924;SDS011;5001;51.674;7.868;2023-06-10T10:40:03;4.43;;;3.10;;
9924;SDS011;5001;51.674;7.868;2023-06-10T10:42:31;4.72;;;3.17;;
9924;SDS011;5001;51.674;7.868;2023-06-10T10:44:59;4.25;;;3.13;;
9924;SDS011;5001;51.674;7.868;2023-06-10T10:47:27;3.60;;;2.78;;
9924;SDS011;5001;51.674;7.868;2023-06-10T10:49:57;3.97;;;3.22;;
9924;SDS011;5001;51.674;7.868;2023-06-10T10:52:26;9.18;;;3.25;;
9924;SDS011;5001;51.674;7.868;2023-06-10T10:54:54;5.28;;;3.22;;
9924;SDS011;5001;51.674;7.868;2023-06-10T10:57:22;6.22;;;3.42;;
9924;SDS011;5001;51.674;7.868;2023-06-10T10:59:57;3.65;;;2.47;;
9924;SDS011;5001;51.674;7.868;2023-06-10T11:05:11;8.25;;;3.38;;
9924;SDS011;5001;51.674;7.868;2023-06-10T11:08:00;5.07;;;3.20;;
9924;SDS011;5001;51.674;7.868;2023-06-10T11:10:31;4.32;;;3.25;;
9924;SDS011;5001;51.674;7.868;2023-06-10T11:13:00;4.03;;;3.05;;
9924;SDS011;5001;51.674;7.868;2023-06-10T11:15:51;4.38;;;2.75;;
9924;SDS011;5001;51.674;7.868;2023-06-10T11:18:26;7.45;;;2.70;;
9924;SDS011;5001;51.674;7.868;2023-06-10T11:21:02;3.25;;;2.95;;
9924;SDS011;5001;51.674;7.868;2023-06-10T11:23:34;6.13;;;3.22;;
9924;SDS011;5001;51.674;7.868;2023-06-10T11:26:29;2.80;;;2.60;;
9924;SDS011;5001;51.674;7.868;2023-06-10T11:29:05;3.95;;;3.08;;
9924;SDS011;5001;51.674;7.868;2023-06-10T11:31:42;6.88;;;3.35;;
9924;SDS011;5001;51.674;7.868;2023-06-10T11:34:11;5.65;;;3.15;;
9924;SDS011;5001;51.674;7.868;2023-06-10T11:36:40;3.30;;;3.00;;
9924;SDS011;5001;51.674;7.868;2023-06-10T11:39:09;3.75;;;3.03;;
9924;SDS011;5001;51.674;7.868;2023-06-10T11:41:38;4.25;;;3.03;;
9924;SDS011;5001;51.674;7.868;2023-06-10T11:44:13;6.93;;;3.33;;
9924;SDS011;5001;51.674;7.868;2023-06-10T11:46:45;4.30;;;2.80;;
9924;SDS011;5001;51.674;7.868;2023-06-10T11:49:15;5.10;;;3.53;;
9924;SDS011;5001;51.674;7.868;2023-06-10T11:51:42;5.15;;;2.80;;
9924;SDS011;5001;51.674;7.868;2023-06-10T11:54:18;4.65;;;2.90;;
9924;SDS011;5001;51.674;7.868;2023-06-10T11:56:45;6.43;;;3.40;;
9924;SDS011;5001;51.674;7.868;2023-06-10T11:59:13;3.92;;;2.85;;
9924;SDS011;5001;51.674;7.868;2023-06-10T12:01:42;4.50;;;3.15;;
9924;SDS011;5001;51.674;7.868;2023-06-10T12:04:11;5.93;;;3.13;;
9924;SDS011;5001;51.674;7.868;2023-06-10T12:06:41;5.60;;;3.15;;
9924;SDS011;5001;51.674;7.868;2023-06-10T12:11:52;4.15;;;2.55;;
9924;SDS011;5001;51.674;7.868;2023-06-10T12:17:23;5.15;;;3.38;;
9924;SDS011;5001;51.674;7.868;2023-06-10T12:19:57;4.50;;;3.20;;
9924;SDS011;5001;51.674;7.868;2023-06-10T12:22:26;6.85;;;3.28;;
9924;SDS011;5001;51.674;7.868;2023-06-10T12:25:00;5.72;;;3.20;;
9924;SDS011;5001;51.674;7.868;2023-06-10T12:27:30;3.55;;;3.05;;
9924;SDS011;5001;51.674;7.868;2023-06-10T12:29:58;4.25;;;3.15;;
9924;SDS011;5001;51.674;7.868;2023-06-10T12:32:38;3.78;;;3.28;;
9924;SDS011;5001;51.674;7.868;2023-06-10T12:35:08;3.95;;;3.10;;
9924;SDS011;5001;51.674;7.868;2023-06-10T12:37:40;3.63;;;3.20;;
9924;SDS011;5001;51.674;7.868;2023-06-10T12:40:09;4.03;;;3.35;;
9924;SDS011;5001;51.674;7.868;2023-06-10T12:42:37;4.55;;;3.20;;
9924;SDS011;5001;51.674;7.868;2023-06-10T12:45:05;5.25;;;3.53;;
9924;SDS011;5001;51.674;7.868;2023-06-10T12:47:37;7.60;;;3.38;;
9924;SDS011;5001;51.674;7.868;2023-06-10T12:50:06;7.05;;;3.38;;
9924;SDS011;5001;51.674;7.868;2023-06-10T12:52:35;4.22;;;3.38;;
9924;SDS011;5001;51.674;7.868;2023-06-10T12:55:02;3.70;;;3.40;;
9924;SDS011;5001;51.674;7.868;2023-06-10T12:57:31;3.25;;;2.95;;
9924;SDS011;5001;51.674;7.868;2023-06-10T12:59:58;4.18;;;3.28;;
9924;SDS011;5001;51.674;7.868;2023-06-10T13:02:30;4.88;;;3.40;;
9924;SDS011;5001;51.674;7.868;2023-06-10T13:04:58;3.90;;;3.17;;
9924;SDS011;5001;51.674;7.868;2023-06-10T13:07:26;8.07;;;3.38;;
9924;SDS011;5001;51.674;7.868;2023-06-10T13:09:53;3.42;;;3.10;;
9924;SDS011;5001;51.674;7.868;2023-06-10T13:12:20;4.38;;;3.58;;
9924;SDS011;5001;51.674;7.868;2023-06-10T13:15:07;4.78;;;3.38;;
9924;SDS011;5001;51.674;7.868;2023-06-10T13:17:36;7.18;;;3.17;;
9924;SDS011;5001;51.674;7.868;2023-06-10T13:20:06;4.35;;;3.38;;
9924;SDS011;5001;51.674;7.868;2023-06-10T13:22:34;5.28;;;3.92;;
9924;SDS011;5001;51.674;7.868;2023-06-10T13:25:03;4.15;;;3.70;;
9924;SDS011;5001;51.674;7.868;2023-06-10T13:27:31;5.60;;;3.58;;
9924;SDS011;5001;51.674;7.868;2023-06-10T13:29:59;6.78;;;3.30;;
9924;SDS011;5001;51.674;7.868;2023-06-10T13:32:26;7.80;;;3.40;;
9924;SDS011;5001;51.674;7.868;2023-06-10T13:34:53;4.15;;;3.40;;
9924;SDS011;5001;51.674;7.868;2023-06-10T13:37:20;4.72;;;3.33;;
9924;SDS011;5001;51.674;7.868;2023-06-10T13:39:47;6.38;;;3.55;;
9924;SDS011;5001;51.674;7.868;2023-06-10T13:42:20;3.95;;;3.55;;
9924;SDS011;5001;51.674;7.868;2023-06-10T13:44:47;4.22;;;3.45;;
9924;SDS011;5001;51.674;7.868;2023-06-10T13:47:15;4.50;;;3.17;;
9924;SDS011;5001;51.674;7.868;2023-06-10T13:49:42;3.28;;;2.83;;
9924;SDS011;5001;51.674;7.868;2023-06-10T13:52:09;6.35;;;3.53;;
9924;SDS011;5001;51.674;7.868;2023-06-10T13:54:36;5.20;;;3.22;;
9924;SDS011;5001;51.674;7.868;2023-06-10T13:57:03;4.70;;;3.40;;
9924;SDS011;5001;51.674;7.868;2023-06-10T13:59:31;8.13;;;3.40;;
9924;SDS011;5001;51.674;7.868;2023-06-10T14:01:58;6.50;;;3.25;;
9924;SDS011;5001;51.674;7.868;2023-06-10T14:04:25;5.38;;;3.35;;
9924;SDS011;5001;51.674;7.868;2023-06-10T14:06:52;4.30;;;3.55;;
9924;SDS011;5001;51.674;7.868;2023-06-10T14:09:19;3.92;;;3.45;;
9924;SDS011;5001;51.674;7.868;2023-06-10T14:11:46;4.50;;;3.20;;
9924;SDS011;5001;51.674;7.868;2023-06-10T14:14:14;6.55;;;4.15;;
9924;SDS011;5001;51.674;7.868;2023-06-10T14:16:41;6.88;;;3.47;;
9924;SDS011;5001;51.674;7.868;2023-06-10T14:19:09;6.07;;;3.78;;
9924;SDS011;5001;51.674;7.868;2023-06-10T14:21:36;4.75;;;3.47;;
9924;SDS011;5001;51.674;7.868;2023-06-10T14:24:03;3.75;;;3.33;;
9924;SDS011;5001;51.674;7.868;2023-06-10T14:26:30;5.53;;;3.30;;
9924;SDS011;5001;51.674;7.868;2023-06-10T14:28:59;8.15;;;3.20;;
9924;SDS011;5001;51.674;7.868;2023-06-10T14:31:26;4.78;;;3.22;;
9924;SDS011;5001;51.674;7.868;2023-06-10T14:33:53;3.80;;;3.33;;
9924;SDS011;5001;51.674;7.868;2023-06-10T14:36:21;4.75;;;3.05;;
9924;SDS011;5001;51.674;7.868;2023-06-10T14:38:49;5.68;;;3.67;;
9924;SDS011;5001;51.674;7.868;2023-06-10T14:41:16;4.28;;;3.00;;
9924;SDS011;5001;51.674;7.868;2023-06-10T14:43:43;4.03;;;3.35;;
9924;SDS011;5001;51.674;7.868;2023-06-10T14:46:10;4.90;;;3.85;;
9924;SDS011;5001;51.674;7.868;2023-06-10T14:48:38;3.67;;;3.03;;
9924;SDS011;5001;51.674;7.868;2023-06-10T14:51:05;3.95;;;2.97;;
9924;SDS011;5001;51.674;7.868;2023-06-10T14:53:33;4.68;;;3.85;;
9924;SDS011;5001;51.674;7.868;2023-06-10T14:56:00;3.60;;;3.22;;
9924;SDS011;5001;51.674;7.868;2023-06-10T14:58:27;5.03;;;3.08;;
9924;SDS011;5001;51.674;7.868;2023-06-10T15:00:54;3.88;;;3.22;;
9924;SDS011;5001;51.674;7.868;2023-06-10T15:03:21;4.57;;;3.22;;
9924;SDS011;5001;51.674;7.868;2023-06-10T15:05:49;5.10;;;3.10;;
9924;SDS011;5001;51.674;7.868;2023-06-10T15:08:16;6.10;;;3.55;;
9924;SDS011;5001;51.674;7.868;2023-06-10T15:10:43;4.00;;;3.15;;
9924;SDS011;5001;51.674;7.868;2023-06-10T15:13:10;4.95;;;3.60;;
9924;SDS011;5001;51.674;7.868;2023-06-10T15:15:37;8.10;;;3.80;;
9924;SDS011;5001;51.674;7.868;2023-06-10T15:18:04;4.93;;;3.70;;
9924;SDS011;5001;51.674;7.868;2023-06-10T15:20:32;5.38;;;3.67;;
9924;SDS011;5001;51.674;7.868;2023-06-10T15:22:59;4.90;;;3.35;;
9924;SDS011;5001;51.674;7.868;2023-06-10T15:25:26;3.88;;;3.10;;
9924;SDS011;5001;51.674;7.868;2023-06-10T15:27:57;3.55;;;3.20;;
9924;SDS011;5001;51.674;7.868;2023-06-10T15:30:25;3.72;;;3.30;;
9924;SDS011;5001;51.674;7.868;2023-06-10T15:32:54;5.28;;;3.45;;
9924;SDS011;5001;51.674;7.868;2023-06-10T15:35:22;5.60;;;3.35;;
9924;SDS011;5001;51.674;7.868;2023-06-10T15:37:49;3.35;;;3.05;;
9924;SDS011;5001;51.674;7.868;2023-06-10T15:40:16;6.35;;;3.30;;
9924;SDS011;5001;51.674;7.868;2023-06-10T15:42:44;4.60;;;3.47;;
9924;SDS011;5001;51.674;7.868;2023-06-10T15:45:11;8.43;;;3.92;;
9924;SDS011;5001;51.674;7.868;2023-06-10T15:47:39;6.22;;;3.17;;